Hidden Valley, Valles Caldera, New Mexico Weather observations

Data are for 10 minute period ending at time listed.
 Day   Time   Solar   Ave.   Ave.  Ave.  Vector  Max.   Baro.   Total    
  of    of     Rad.   Air    Rel.  Wind   Wind   Wind  Press.  Precip.   
Year   Day            Temp.  Hum.  Speed  Dir.   Gust                    
2015   (MST)  Kw/m2    F      %     mph   deg.    mph    mb.     in.     
-------------------------------------------------------------------------
 107   21:30   0.00   27.8    74    2.0   174     4.3   743.3    0.00 
 107   21:40   0.00   28.1    74    2.2   194     4.3   743.3    0.00 
 107   21:50   0.00   28.0    77    2.5   200     4.1   743.2    0.00 
 107   22:00   0.00   27.7    80    2.7   198     4.3   743.1    0.00 
 107   22:10   0.00   27.3    83    2.8   206     4.5   743.1    0.00 
 107   22:20   0.00   27.1    86    1.9   212     3.1   743.1    0.00 
 107   22:30   0.00   27.0    87    0.9   213     1.8   743.1    0.00 
 107   22:40   0.00   26.9    84    0.8     4     1.6   743.1    0.00 
 107   22:50   0.00   26.7    85    0.9    23     1.4   743.1    0.00 
 107   23:00   0.00   26.5    87    0.9    54     1.5   743.1    0.00 
 107   23:10   0.00   25.7    89    1.0    79     1.9   743.1    0.00 
 107   23:20   0.00   25.4    92    0.6    28     1.0   743.0    0.00 
 107   23:30   0.00   25.3    93    0.3   310     1.1   743.0    0.00 
 107   23:40   0.00   25.4    94    0.3    80     1.0   742.9    0.00 
 107   23:50   0.00   25.3    95    0.4    59     1.1   742.8    0.00 
 108    0:00   0.00   25.2    95    0.4    41     1.1   742.8    0.00 
 108    0:10   0.00   25.2    96    0.2    36     0.7   742.7    0.00 
 108    0:20   0.00   25.2    96    0.2   352     0.5   742.6    0.00 
 108    0:30   0.00   25.2    96    0.2    28     0.5   742.5    0.00 
 108    0:40   0.00   25.2    97    0.3    26     0.7   742.4    0.00 
 108    0:50   0.00   25.1    97    0.2    46     0.6   742.3    0.00 
 108    1:00   0.00   25.1    97    0.0    62     0.4   742.2    0.00 
 108    1:10   0.00   25.1    97    0.0    62     0.2   742.1    0.00 
 108    1:20   0.00   25.1    97    0.1    17     0.7   741.9    0.00 
 108    1:30   0.00   25.2    97    0.3    43     1.1   741.7    0.00 
 108    1:40   0.00   25.6    98    0.6   240     4.1   741.6    0.00 
 108    1:50   0.00   27.5    99    2.3   199     3.9   741.4    0.00 
 108    2:00   0.00   28.0    98    2.2   209     3.5   741.2    0.00 
 108    2:10   0.00   28.0    98    3.1   209     5.9   741.1    0.00 
 108    2:20   0.00   27.9    98    3.0   204     5.0   741.0    0.00 
 108    2:30   0.00   27.8    99    3.1   206     5.1   741.0    0.00 
 108    2:40   0.00   27.7    99    3.2   208     5.3   740.9    0.00 
 108    2:50   0.00   27.6    99    2.6   202     4.1   740.8    0.00 
 108    3:00   0.00   27.6    99    2.5   194     4.2   740.8    0.01 
 108    3:10   0.00   27.6    99    2.1   196     3.4   740.7    0.02 
 108    3:20   0.00   27.7    99    2.2   198     3.6   740.7    0.01 
 108    3:30   0.00   27.7    99    2.3   187     3.8   740.7    0.01 
 108    3:40   0.00   27.6    99    2.6   195     4.2   740.6    0.01 
 108    3:50   0.00   27.6    99    2.8   201     4.0   740.6    0.02 
 108    4:00   0.00   27.6    99    2.3   195     4.0   740.6    0.01 
 108    4:10   0.00   27.6   100    2.3   200     4.0   740.7    0.02 
 108    4:20   0.00   27.6    99    2.0   193     3.4   740.7    0.02 
 108    4:30   0.00   27.5    99    1.2   210     3.0   740.7    0.02 
 108    4:40   0.00   27.5    99    0.1   256     0.6   740.8    0.01 
 108    4:50   0.00   27.5    99    0.6   320     1.4   740.9    0.02 
 108    5:00   0.00   27.4    99    1.2    17     2.6   740.9    0.01 
 108    5:10   0.00   26.9    99    1.8    44     2.7   741.0    0.00 
 108    5:20   0.00   26.7    99    0.5    50     1.4   740.9    0.01 
 108    5:30   0.00   26.6    99    0.1   350     0.4   740.9    0.01 
 108    5:40   0.00   26.6    99    0.2   340     0.6   740.9    0.00 
 108    5:50   0.01   26.6    99    0.2   157     0.7   740.7    0.00 
 108    6:00   0.01   26.6    99    1.4   326     2.5   740.9    0.00 
 108    6:10   0.02   26.5    99    1.3   356     2.0   740.9    0.00 
 108    6:20   0.03   26.5    99    0.4    24     0.9   740.9    0.01 
 108    6:30   0.06   26.6    99    0.6    99     0.9   740.9    0.00 
 108    6:40   0.08   26.9    99    1.5   350     2.9   741.2    0.00 
 108    6:50   0.11   27.2    99    1.8     4     2.6   741.3    0.00 
 108    7:00   0.14   27.7    99    1.4     2     2.2   741.3    0.00 
 108    7:10   0.17   28.2    99    0.7    55     1.4   741.4    0.00 
 108    7:20   0.44   30.1   100    0.5   163     1.7   741.5    0.01 
 108    7:30   0.45   31.1    98    0.8   154     1.6   741.3    0.02 
 108    7:40   0.55   31.2    98    2.1    72     3.8   741.3    0.01 
 108    7:50   0.64   30.3    98    2.0    55     3.1   741.4    0.01 
 108    8:00   0.57   30.8    98    1.3    83     2.3   741.3    0.00 
 108    8:10   0.66   31.6    98    1.4    60     2.6   741.4    0.00 
 108    8:20   0.77   30.8    97    2.5    64     4.9   741.4    0.00 
 108    8:30   0.70   30.8    97    2.0    78     3.0   741.5    0.00 
 108    8:40   0.52   30.0    96    2.4    85     3.5   741.5    0.00 
 108    8:50   0.52   30.0    95    1.8    89     3.7   741.4    0.00 
 108    9:00   0.67   31.6    96    0.8    94     1.4   741.4    0.00 
 108    9:10   0.90   32.4    92    1.5    88     2.5   741.5    0.00 
 108    9:20   0.99   33.2    87    1.2   114     2.1   741.5    0.00 
 108    9:30   0.79   34.4    82    0.9    69     2.1   741.6    0.00 
 108    9:40   0.49   33.0    76    1.1   132     1.9   741.7    0.00 
 108    9:50   0.87   34.2    72    1.5   114     2.2   741.7    0.00 
 108   10:00   0.60   33.0    72    2.0   126     3.1   741.7    0.00 
 108   10:10   0.79   34.3    76    2.6   172     4.7   741.6    0.00 
 108   10:20   0.46   33.1    79    3.3   185     5.5   741.7    0.00 
 108   10:30   0.67   33.6    80    4.0   201     5.9   741.7    0.00 
 108   10:40   0.55   33.3    81    4.2   195     6.7   741.6    0.00 
 108   10:50   0.78   34.1    78    4.6   196     8.0   741.6    0.00 
 108   11:00   1.08   34.5    77    5.7   204     8.9   741.5    0.00 
 108   11:10   0.81   34.5    76    5.3   204     9.4   741.4    0.00 
 108   11:20   0.86   35.1    74    5.4   208     7.9   741.3    0.00 
 108   11:30   1.10   35.6    73    5.7   200     8.6   741.2    0.00 
 108   11:40   1.15   36.4    72    5.2   211     8.3   741.3    0.00 
 108   11:50   1.09   37.1    70    3.7   241     7.3   741.4    0.00 
 108   12:00   1.06   37.6    68    3.9   227     7.5   741.3    0.00 
 108   12:10   1.05   37.4    66    3.3   256     8.9   741.3    0.00 
 108   12:20   1.05   37.4    66    3.7   240     7.7   741.3    0.00 
 108   12:30   1.06   36.2    66    5.4   242     9.1   741.4    0.00 
 108   12:40   1.05   36.4    68    3.9   246     7.3   741.5    0.00 
 108   12:50   1.04   36.8    66    3.7   237     7.3   741.4    0.00 
 108   13:00   1.04   36.8    66    3.8   256     8.7   741.4    0.00 
 108   13:10   1.03   36.4    65    4.5   245     9.5   741.4    0.00 
 108   13:20   1.01   36.9    66    3.3   265    11.0   741.5    0.00 
 108   13:30   0.96   37.5    64    3.5   263     8.6   741.4    0.00 
 108   13:40   0.87   37.9    60    2.7   240     6.9   741.3    0.00 
 108   13:50   0.95   38.3    54    3.2   252     8.6   741.3    0.00 
 108   14:00   0.94   37.6    55    3.3   271    11.3   741.2    0.00 
 108   14:10   0.54   37.8    56    2.5   252     6.4   741.2    0.00 
 108   14:20   0.77   38.1    53    3.1   273     6.7   741.1    0.00 
 108   14:30   0.48   37.3    52    3.5   262     9.1   741.0    0.00 
 108   14:40   0.70   37.7    53    1.9   317     5.2   741.0    0.00 
 108   14:50   0.64   39.1    51    1.6   252     5.0   741.0    0.00 
 108   15:00   0.48   37.7    51    3.3   330     8.9   741.0    0.00 
 108   15:10   0.48   36.9    55    2.7   328     6.0   740.8    0.00 
 108   15:20   0.43   37.4    56    2.2   350     7.2   740.7    0.00 
 108   15:30   0.37   37.3    57    3.0   317     8.6   740.7    0.00 
 108   15:40   0.35   37.1    60    2.9   303    11.2   740.6    0.00 
 108   15:50   0.42   38.0    61    1.9   204     5.3   740.6    0.00 
 108   16:00   0.35   38.4    62    2.4   206     6.4   740.6    0.00 
 108   16:10   0.24   37.3    65    3.6   228     9.7   740.6    0.00 
 108   16:20   0.23   36.8    68    3.7   236     8.9   740.7    0.00 
 108   16:30   0.31   37.3    68    3.7   230     8.1   740.8    0.00 
 108   16:40   0.38   37.6    67    3.7   274     7.9   740.9    0.00 
 108   16:50   0.28   38.1    67    2.9   248     7.0   740.9    0.00 
 108   17:00   0.12   37.3    68    4.2   305    11.1   741.0    0.00 
 108   17:10   0.19   37.6    67    2.8   296     9.2   741.0    0.00 
 108   17:20   0.08   37.3    66    2.8   282     7.5   740.9    0.00 
 108   17:30   0.17   37.7    66    1.8   256     7.5   740.8    0.00 
 108   17:40   0.06   37.5    66    2.7   344     8.1   740.8    0.00 
 108   17:50   0.04   36.9    68    3.0   293     8.7   740.7    0.00 
 108   18:00   0.04   36.9    68    2.8   294     7.6   740.5    0.00 
 108   18:10   0.02   37.2    68    2.7   313     8.4   740.6    0.00 
 108   18:20   0.02   36.7    72    2.0   308     6.9   740.8    0.00 
 108   18:30   0.01   36.5    73    2.6   341    10.0   740.8    0.00 
 108   18:40   0.01   36.8    71    2.4    20     7.9   740.8    0.00 
 108   18:50   0.00   37.3    69    2.9   266     9.5   740.8    0.00 
 108   19:00   0.00   37.5    67    2.5   282    11.0   740.8    0.00 
 108   19:10   0.00   37.4    67    2.1    38     7.9   740.8    0.00 
 108   19:20   0.00   37.6    67    3.2   266     8.8   740.9    0.00 
 108   19:30   0.00   37.8    65    3.2   248     8.6   740.8    0.00 
 108   19:40   0.00   38.0    64    2.6   316     9.2   741.0    0.00 
 108   19:50   0.00   38.1    63    3.2   342    11.9   741.0    0.00 
 108   20:00   0.00   38.1    62    1.5    22     7.3   741.3    0.00 
 108   20:10   0.00   38.0    62    3.1   328     9.9   741.4    0.00 
 108   20:20   0.00   38.1    61    3.4   354     6.9   741.5    0.00 
 108   20:30   0.00   38.0    62    3.4   336     8.7   741.6    0.00 
 108   20:40   0.00   37.9    61    3.8   353     8.9   741.6    0.00 
 108   20:50   0.00   38.2    59    4.2   338    12.3   741.6    0.00 
 108   21:00   0.00   38.2    60    3.6   348     9.3   741.7    0.00 
 108   21:10   0.00   38.3    60    4.7   344    10.7   741.8    0.00 
 108   21:20   0.00   38.4    59    3.4   307    10.0   741.7    0.00 

Return to Hidden Valley, Valles Caldera graphs page.


Western Regional Climate Center,wrcc@dri.edu